Time;durP1;ratioP1;P1;durP2;ratioP2;P2;SDS_P1;SDS_P2;PMS_P1;PMS_P2;Temp;Humidity;BMP_temperature;BMP_pressure;BME280_temperature;BME280_humidity;BME280_pressure;Samples;Min_cycle;Max_cycle;Signal;HPM_P1;HPM_P2
2022/03/16 06:02:18;;;;;;;61.15;34.45;;;8.60;99.90;;;;;;5684460;23;20054;-82
2022/03/16 06:04:44;;;;;;;61.55;35.35;;;8.60;99.90;;;;;;4934286;29;20031;-80
2022/03/16 06:07:11;;;;;;;63.95;35.88;;;8.50;99.90;;;;;;4951502;29;20031;-78
2022/03/16 06:09:38;;;;;;;63.05;36.88;;;8.60;99.90;;;;;;4939695;29;20035;-80
2022/03/16 06:12:04;;;;;;;61.47;34.83;;;8.60;99.90;;;;;;4953488;29;20023;-80
2022/03/16 06:14:31;;;;;;;67.13;36.38;;;8.70;99.90;;;;;;4937150;28;20106;-79
2022/03/16 07:16:11;;;;;;;43.63;24.20;;;9.40;99.90;;;;;;4944148;29;20202;-81
2022/03/16 07:18:45;;;;;;;48.42;27.33;;;9.50;99.90;;;;;;4946602;29;20067;-79
2022/03/16 07:21:16;;;;;;;46.13;26.08;;;9.50;99.90;;;;;;4945180;29;20027;-79
2022/03/16 07:23:44;;;;;;;44.80;26.38;;;9.40;99.90;;;;;;4914449;29;20053;-81
2022/03/16 07:26:10;;;;;;;45.47;26.75;;;9.50;99.90;;;;;;4929599;29;20127;-82
2022/03/16 07:28:36;;;;;;;42.28;25.27;;;9.50;99.90;;;;;;4921057;29;20036;-81
2022/03/16 07:31:02;;;;;;;45.08;25.42;;;9.50;99.90;;;;;;4914340;29;20039;-80
2022/03/16 07:33:28;;;;;;;47.38;24.88;;;9.50;99.90;;;;;;4929497;29;20151;-80
2022/03/16 07:35:53;;;;;;;50.70;25.65;;;9.60;99.90;;;;;;4914230;29;20067;-80
2022/03/16 07:41:59;;;;;;;43.45;25.80;;;9.50;99.90;;;;;;4927605;29;20102;-80
2022/03/16 07:44:47;;;;;;;45.42;25.58;;;9.40;99.90;;;;;;4929263;29;20325;-79
2022/03/16 07:47:19;;;;;;;41.70;25.00;;;9.40;99.90;;;;;;4928655;29;20036;-79
2022/03/16 07:49:57;;;;;;;44.38;25.90;;;9.40;99.90;;;;;;4913941;29;20035;-79
2022/03/16 07:52:31;;;;;;;40.58;25.35;;;9.40;99.90;;;;;;4926759;29;20061;-78
2022/03/16 07:54:57;;;;;;;43.00;24.67;;;9.40;99.90;;;;;;4913752;29;20115;-79
2022/03/16 07:57:49;;;;;;;;;;;;;;;;;;;;;
2022/03/16 08:00:27;;;;;;;40.50;23.95;;;9.50;99.90;;;;;;4928227;29;20028;-79
2022/03/16 08:03:08;;;;;;;42.50;25.55;;;9.40;99.90;;;;;;4912682;29;20032;-79
2022/03/16 08:42:44;;;;;;;35.45;22.65;;;9.90;99.90;;;;;;4945870;29;20063;-78
2022/03/16 08:45:12;;;;;;;38.10;22.67;;;10.00;99.90;;;;;;4948651;29;20094;-78
2022/03/16 08:47:38;;;;;;;;;;;10.10;99.90;;;;;;4935661;29;20336;-78
2022/03/16 08:50:06;;;;;;;39.03;21.92;;;10.20;99.90;;;;;;5242871;23;20476;-78
2022/03/16 08:55:30;;;;;;;37.30;21.45;;;10.40;99.90;;;;;;4949292;28;20118;-80
2022/03/16 08:58:01;;;;;;;35.65;21.52;;;10.50;99.90;;;;;;4944914;29;20028;-80
2022/03/16 09:00:55;;;;;;;36.05;22.17;;;10.40;99.90;;;;;;4927808;29;20068;-80
2022/03/16 09:07:02;;;;;;;30.25;19.27;;;10.40;99.90;;;;;;4926647;29;20145;-79
2022/03/16 09:09:59;;;;;;;34.13;21.05;;;10.60;99.90;;;;;;4911499;29;20127;-80
2022/03/16 09:12:41;;;;;;;31.33;20.33;;;10.70;99.90;;;;;;4893337;29;20036;-80
2022/03/16 09:19:50;;;;;;;35.22;18.75;;;11.20;99.90;;;;;;4912292;29;20283;-79
2022/03/16 09:23:08;;;;;;;32.05;19.67;;;11.30;99.90;;;;;;4925976;29;20061;-78
2022/03/16 09:34:11;;;;;;;31.58;20.58;;;11.50;99.90;;;;;;4886488;29;20146;-80
2022/03/16 09:37:16;;;;;;;33.45;21.75;;;11.50;99.90;;;;;;4873669;29;20060;-79
2022/03/16 09:39:54;;;;;;;33.30;20.83;;;11.60;99.90;;;;;;4904001;29;20051;-79
2022/03/16 10:18:37;;;;;;;26.80;17.70;;;13.50;98.90;;;;;;4906881;29;20047;-79
2022/03/16 10:21:49;;;;;;;26.15;17.63;;;13.60;99.00;;;;;;4925172;29;20108;-80
2022/03/16 10:24:15;;;;;;;23.77;16.38;;;13.80;98.40;;;;;;4925296;29;20099;-80
2022/03/16 10:27:09;;;;;;;;;;;;;;;;;;;;;
2022/03/16 10:30:29;;;;;;;24.50;16.65;;;14.30;97.20;;;;;;4909774;29;20298;-79
2022/03/16 10:36:33;;;;;;;24.85;16.58;;;14.10;96.00;;;;;;4907944;29;20044;-80
2022/03/16 10:39:37;;;;;;;22.65;16.40;;;14.10;95.70;;;;;;4908393;29;20036;-79
2022/03/16 10:46:48;;;;;;;23.27;16.10;;;14.30;95.20;;;;;;4898622;29;20380;-80
2022/03/16 10:53:59;;;;;;;23.48;15.70;;;14.30;94.90;;;;;;4874319;29;20045;-81
2022/03/16 11:01:38;;;;;;;20.63;15.23;;;15.00;93.60;;;;;;4815523;29;20235;-81
2022/03/16 11:04:10;;;;;;;23.35;15.65;;;14.90;93.50;;;;;;4800880;29;20058;-80
2022/03/16 11:14:36;;;;;;;20.92;14.98;;;15.50;91.60;;;;;;4775892;30;20069;-82
2022/03/16 11:17:17;;;;;;;21.85;15.55;;;15.70;91.60;;;;;;4770226;29;20061;-80
2022/03/16 11:20:19;;;;;;;20.70;14.73;;;16.00;91.00;;;;;;4761085;30;20139;-81
2022/03/16 11:30:30;;;;;;;19.83;15.07;;;16.80;89.90;;;;;;4758080;30;20044;-80
2022/03/16 11:33:20;;;;;;;18.42;15.00;;;17.20;87.60;;;;;;4740220;30;20064;-80
2022/03/16 11:47:56;;;;;;;21.02;15.73;;;17.90;85.50;;;;;;4863045;29;20109;-81
2022/03/16 11:54:17;;;;;;;18.80;14.67;;;17.50;85.60;;;;;;4871628;29;19997;-82
2022/03/16 11:57:30;;;;;;;18.23;13.52;;;17.10;86.00;;;;;;4881866;29;20433;-82
2022/03/16 12:00:17;;;;;;;19.05;15.18;;;16.60;87.40;;;;;;4891835;29;20476;-82
2022/03/16 12:03:00;;;;;;;19.13;14.38;;;16.70;88.00;;;;;;4893785;29;20092;-80
2022/03/16 12:10:06;;;;;;;16.77;13.45;;;17.20;86.60;;;;;;4928777;29;20035;-82
2022/03/16 13:01:03;;;;;;;19.23;13.48;;;15.40;90.90;;;;;;4853491;29;20054;-82
2022/03/16 13:04:37;;;;;;;17.83;12.63;;;15.50;91.00;;;;;;4817363;29;20044;-81
2022/03/16 13:07:09;;;;;;;;;;;15.80;90.30;;;;;;4834378;29;20038;-82
2022/03/16 13:10:02;;;;;;;23.17;13.43;;;15.90;90.30;;;;;;4862204;29;19916;-83
2022/03/16 13:12:56;;;;;;;17.58;12.43;;;16.20;90.10;;;;;;4873471;29;20025;-82
2022/03/16 13:16:40;;;;;;;21.20;13.50;;;16.40;89.70;;;;;;4887083;29;21072;-81
2022/03/16 13:19:32;;;;;;;18.08;13.60;;;16.30;89.60;;;;;;4816564;29;20065;-83
2022/03/16 13:25:34;;;;;;;15.15;12.05;;;16.90;87.70;;;;;;4831365;29;20291;-82
2022/03/16 13:35:35;;;;;;;14.52;11.95;;;19.70;81.40;;;;;;5256669;23;20092;-81
2022/03/16 13:38:04;;;;;;;15.00;10.90;;;20.20;78.60;;;;;;4963635;29;20035;-82
2022/03/16 13:40:48;;;;;;;16.00;11.15;;;19.90;79.30;;;;;;4947015;29;20039;-82
2022/03/16 13:46:49;;;;;;;15.43;11.75;;;20.20;77.40;;;;;;4923365;29;20231;-81
2022/03/16 13:49:46;;;;;;;16.48;11.23;;;19.90;77.60;;;;;;4926246;29;20039;-83
2022/03/16 13:52:14;;;;;;;16.45;10.60;;;19.90;78.50;;;;;;4929662;29;20337;-81
2022/03/16 13:54:41;;;;;;;14.05;11.27;;;19.70;78.40;;;;;;4931702;29;20055;-81
2022/03/16 13:57:13;;;;;;;16.13;12.82;;;19.10;79.80;;;;;;4912290;29;20027;-82
2022/03/16 13:59:41;;;;;;;15.00;11.27;;;19.00;80.10;;;;;;4912269;29;20040;-82
2022/03/16 14:02:10;;;;;;;15.40;11.63;;;19.10;80.40;;;;;;4927673;29;20032;-81
2022/03/16 14:04:39;;;;;;;13.70;10.63;;;18.90;80.50;;;;;;4927475;29;20032;-82
2022/03/16 14:07:28;;;;;;;16.00;10.77;;;18.80;80.70;;;;;;4911846;29;20051;-81
2022/03/16 14:10:22;;;;;;;16.15;11.07;;;18.50;82.50;;;;;;4927810;29;20028;-82
2022/03/16 14:16:34;;;;;;;18.73;12.85;;;18.40;82.00;;;;;;4924839;28;20116;-82
2022/03/16 14:18:59;;;;;;;17.02;12.02;;;17.80;83.70;;;;;;4928025;29;20044;-83
2022/03/16 14:21:25;;;;;;;15.80;11.65;;;18.00;84.10;;;;;;4911194;29;20031;-79
2022/03/16 14:23:51;;;;;;;16.60;12.25;;;18.20;83.40;;;;;;4944031;29;20058;-81
2022/03/16 14:26:20;;;;;;;18.58;12.07;;;18.20;83.40;;;;;;4945558;29;20039;-81
2022/03/16 14:28:46;;;;;;;19.92;12.88;;;18.10;82.50;;;;;;4946744;29;20401;-80
2022/03/16 14:35:26;;;;;;;16.10;11.93;;;18.00;83.50;;;;;;4967502;28;20458;-81
2022/03/16 14:41:47;;;;;;;19.83;12.57;;;16.90;85.20;;;;;;4928474;29;20217;-82
2022/03/16 14:44:19;;;;;;;17.15;11.82;;;16.20;87.00;;;;;;4928004;29;20036;-81
2022/03/16 14:46:45;;;;;;;18.20;12.60;;;16.00;87.80;;;;;;4926647;29;20071;-83
2022/03/16 14:49:11;;;;;;;18.40;12.90;;;15.90;88.30;;;;;;4928591;29;20226;-82
2022/03/16 14:51:36;;;;;;;18.23;13.02;;;15.50;89.10;;;;;;4928143;29;20035;-84
2022/03/16 14:54:52;;;;;;;20.88;12.88;;;15.30;89.60;;;;;;4927355;29;20028;-82
2022/03/16 14:57:19;;;;;;;14.52;11.90;;;15.20;90.30;;;;;;4926576;29;20104;-80
2022/03/16 14:59:48;;;;;;;17.25;12.23;;;15.10;90.00;;;;;;4926835;29;20036;-81
2022/03/16 15:02:35;;;;;;;;;;;15.20;90.40;;;;;;4927809;29;20057;-81
2022/03/16 15:05:06;;;;;;;13.05;10.32;;;15.00;89.70;;;;;;4926638;29;19915;-81
2022/03/16 15:07:45;;;;;;;16.73;11.15;;;15.00;89.70;;;;;;4927572;29;20055;-81
2022/03/16 15:10:17;;;;;;;16.75;12.60;;;15.20;89.90;;;;;;4911490;29;20028;-81
2022/03/16 15:12:43;;;;;;;17.20;12.25;;;15.40;89.60;;;;;;4926394;29;20032;-80
2022/03/16 15:15:10;;;;;;;16.63;11.85;;;15.60;88.90;;;;;;4927019;29;20246;-81
2022/03/16 15:17:56;;;;;;;16.98;12.52;;;15.60;89.00;;;;;;4926251;29;20040;-80
2022/03/16 15:20:23;;;;;;;17.98;12.43;;;15.40;89.40;;;;;;4925455;29;20044;-81
2022/03/16 15:22:49;;;;;;;16.63;12.88;;;15.10;90.00;;;;;;4926610;29;20044;-81
2022/03/16 15:25:15;;;;;;;18.88;13.25;;;14.60;90.50;;;;;;4910884;29;20028;-81
2022/03/16 15:27:47;;;;;;;17.13;12.60;;;14.40;90.90;;;;;;4927487;29;20040;-82
2022/03/16 15:31:28;;;;;;;16.85;12.82;;;14.10;91.20;;;;;;4926578;29;20304;-81
2022/03/16 15:34:00;;;;;;;17.13;13.50;;;13.90;91.50;;;;;;4924541;29;20040;-85
2022/03/16 15:36:36;;;;;;;18.60;13.57;;;13.80;91.70;;;;;;4934435;29;20047;-84
2022/03/16 15:45:03;;;;;;;18.60;13.57;;;13.80;91.70;;;;;;4945852;29;20046;-84
2022/03/16 15:47:29;;;;;;;18.95;13.57;;;13.70;91.80;;;;;;4945102;29;20087;-81
2022/03/16 15:49:57;;;;;;;19.83;14.82;;;13.90;91.70;;;;;;4946656;29;20022;-82
2022/03/16 15:52:26;;;;;;;18.98;14.85;;;13.90;91.60;;;;;;4944666;29;20032;-78
2022/03/16 15:54:56;;;;;;;18.90;14.82;;;13.70;92.00;;;;;;4905276;28;20052;-79
2022/03/16 15:57:24;;;;;;;18.77;14.57;;;13.40;92.20;;;;;;4923089;29;20056;-81
2022/03/16 15:59:50;;;;;;;21.05;15.13;;;13.40;92.40;;;;;;4907190;29;20067;-85
2022/03/16 16:02:42;;;;;;;18.58;14.43;;;13.30;92.50;;;;;;4922692;29;20052;-81
2022/03/16 16:08:20;;;;;;;18.75;14.60;;;13.10;93.00;;;;;;4926303;29;20103;-82
2022/03/16 16:11:07;;;;;;;21.35;14.80;;;13.00;93.10;;;;;;4925403;29;20047;-82
2022/03/16 16:13:31;;;;;;;17.92;13.82;;;13.10;93.10;;;;;;4926349;29;20032;-82
2022/03/16 16:15:57;;;;;;;17.73;14.57;;;13.10;93.10;;;;;;4925074;29;20050;-82
2022/03/16 16:18:28;;;;;;;20.15;14.70;;;13.20;93.30;;;;;;4925932;29;20028;-81
2022/03/16 16:20:56;;;;;;;18.27;14.48;;;13.20;93.10;;;;;;4910665;29;20028;-80
2022/03/16 16:23:32;;;;;;;20.88;14.50;;;13.20;93.00;;;;;;4925848;29;20096;-82
2022/03/16 16:25:58;;;;;;;21.63;15.50;;;13.10;93.00;;;;;;4925727;29;20309;-82
2022/03/16 16:28:30;;;;;;;19.77;14.30;;;13.20;93.20;;;;;;4926662;29;20336;-82
2022/03/16 16:31:04;;;;;;;18.40;14.18;;;13.10;93.20;;;;;;4922319;29;20055;-85
2022/03/16 16:33:36;;;;;;;19.23;14.90;;;13.00;93.30;;;;;;4912003;29;20038;-81
2022/03/16 16:36:22;;;;;;;23.27;14.93;;;12.90;93.40;;;;;;4880814;29;20053;-80
2022/03/16 16:38:48;;;;;;;21.25;15.25;;;12.80;93.50;;;;;;4873603;29;20052;-83
2022/03/16 16:41:13;;;;;;;20.38;14.93;;;12.70;93.80;;;;;;4869411;29;20045;-81
2022/03/16 16:43:42;;;;;;;22.67;16.58;;;12.60;93.90;;;;;;4888101;29;20045;-81
2022/03/16 16:46:13;;;;;;;19.08;14.23;;;12.60;94.10;;;;;;4886538;29;20045;-81
2022/03/16 16:48:48;;;;;;;19.98;14.52;;;12.50;94.20;;;;;;4887089;29;20072;-82
2022/03/16 16:51:18;;;;;;;18.77;14.13;;;12.40;94.30;;;;;;4871368;29;20370;-83
2022/03/16 16:53:47;;;;;;;19.88;14.50;;;12.40;94.40;;;;;;4887552;29;20040;-84
2022/03/16 16:56:16;;;;;;;20.23;14.70;;;12.30;94.40;;;;;;4884757;29;20029;-82
2022/03/16 16:58:43;;;;;;;18.88;14.20;;;12.30;94.50;;;;;;4868708;29;20044;-84
2022/03/16 17:01:11;;;;;;;20.40;14.73;;;12.30;94.60;;;;;;4867773;29;20053;-82
2022/03/16 17:03:40;;;;;;;19.17;14.95;;;12.20;94.60;;;;;;4883471;29;20077;-82
2022/03/16 17:06:06;;;;;;;19.35;14.70;;;12.20;94.80;;;;;;4880714;29;20045;-84
2022/03/16 17:08:32;;;;;;;17.48;13.90;;;12.10;94.80;;;;;;4880533;29;20028;-82
2022/03/16 17:10:58;;;;;;;21.60;15.15;;;12.10;94.80;;;;;;4886159;29;20040;-82
2022/03/16 17:13:30;;;;;;;20.77;14.98;;;12.00;94.90;;;;;;4899127;29;20024;-82
2022/03/16 17:16:00;;;;;;;20.65;15.02;;;11.90;94.90;;;;;;4914541;29;20329;-82
2022/03/16 17:18:29;;;;;;;18.60;13.75;;;11.90;95.00;;;;;;4908449;29;20036;-82
2022/03/16 17:20:59;;;;;;;20.98;14.88;;;11.80;94.90;;;;;;4924601;29;20265;-83
2022/03/16 17:23:28;;;;;;;21.33;14.80;;;11.80;95.10;;;;;;4924257;29;20337;-82
2022/03/16 17:25:57;;;;;;;23.30;15.20;;;11.70;95.20;;;;;;4924292;29;20058;-82
2022/03/16 17:28:32;;;;;;;20.67;15.15;;;11.70;95.20;;;;;;4925018;29;20035;-81
2022/03/16 17:30:58;;;;;;;20.80;14.82;;;11.60;95.20;;;;;;4923476;29;20036;-81
2022/03/16 17:33:43;;;;;;;18.98;15.30;;;11.60;95.30;;;;;;4924408;29;20226;-83
2022/03/16 17:36:10;;;;;;;21.00;14.80;;;11.60;95.40;;;;;;4907817;29;20055;-82
2022/03/16 17:38:36;;;;;;;20.80;14.85;;;11.50;95.50;;;;;;4924246;29;20032;-83
2022/03/16 17:46:55;;;;;;;23.33;15.32;;;11.40;95.60;;;;;;4923558;29;20394;-82
2022/03/16 17:49:21;;;;;;;20.80;15.18;;;11.40;95.50;;;;;;4908513;29;20046;-81
2022/03/16 17:51:47;;;;;;;20.48;15.10;;;11.40;95.70;;;;;;4908184;29;20067;-82
2022/03/16 17:54:13;;;;;;;20.23;14.75;;;11.30;95.80;;;;;;4924227;29;20036;-83
2022/03/16 17:56:45;;;;;;;20.98;15.55;;;11.30;95.90;;;;;;4925728;29;20088;-83
2022/03/16 17:59:15;;;;;;;20.33;14.82;;;11.20;96.00;;;;;;4924168;29;20028;-84
2022/03/16 18:01:56;;;;;;;19.33;14.30;;;11.20;96.10;;;;;;4922999;29;20040;-83
2022/03/16 18:04:22;;;;;;;21.13;15.20;;;11.20;96.10;;;;;;4924204;29;20032;-82
2022/03/16 18:07:11;;;;;;;19.40;14.63;;;11.10;96.00;;;;;;4923220;29;20038;-84
2022/03/16 18:12:58;;;;;;;20.80;14.70;;;11.10;96.20;;;;;;4923783;29;20346;-83
2022/03/16 18:15:09;;;;;;;21.75;15.07;;;11.10;96.40;;;;;;4923748;29;20217;-84
2022/03/16 18:17:35;;;;;;;;;;;11.00;96.50;;;;;;4924179;29;20032;-82
2022/03/16 18:20:01;;;;;;;26.33;15.57;;;11.00;96.50;;;;;;4924000;29;19914;-81
2022/03/16 18:22:27;;;;;;;26.65;16.77;;;10.90;96.70;;;;;;4923771;29;20039;-82
2022/03/16 18:25:01;;;;;;;26.27;18.02;;;10.90;96.80;;;;;;4924094;29;20036;-83
2022/03/16 18:27:29;;;;;;;29.50;17.95;;;10.90;96.90;;;;;;4925068;29;20333;-82
2022/03/16 18:29:55;;;;;;;;;;;10.90;97.00;;;;;;4924309;29;20302;-84
2022/03/16 18:32:24;;;;;;;23.15;16.45;;;10.80;97.10;;;;;;4922044;29;19945;-84
2022/03/16 18:34:50;;;;;;;24.20;16.75;;;10.80;97.20;;;;;;4925419;29;20043;-84
2022/03/16 18:37:19;;;;;;;24.30;17.10;;;10.80;97.30;;;;;;4927478;29;20055;-82
2022/03/16 18:40:38;;;;;;;27.40;17.40;;;10.80;97.30;;;;;;4927600;29;20046;-82
2022/03/16 18:43:07;;;;;;;23.83;16.48;;;10.80;97.20;;;;;;4927648;29;20032;-82
2022/03/16 18:45:34;;;;;;;23.55;17.05;;;10.80;97.10;;;;;;4927519;29;20044;-82
2022/03/16 18:48:01;;;;;;;22.40;16.13;;;10.80;97.10;;;;;;4930816;29;20035;-84
2022/03/16 18:50:29;;;;;;;23.80;16.02;;;10.80;97.20;;;;;;4931488;29;20051;-81
2022/03/16 18:52:58;;;;;;;25.15;17.35;;;10.70;97.20;;;;;;4931583;29;20028;-84
2022/03/16 18:55:31;;;;;;;24.42;17.55;;;10.70;97.30;;;;;;4934294;29;20039;-84
2022/03/16 18:58:08;;;;;;;25.98;17.58;;;10.70;97.50;;;;;;4937179;29;20032;-86
2022/03/16 19:00:38;;;;;;;22.90;16.38;;;10.70;97.50;;;;;;4923374;29;20039;-83
2022/03/16 19:03:06;;;;;;;22.88;16.85;;;10.60;97.60;;;;;;4912975;29;20032;-85
2022/03/16 19:05:44;;;;;;;23.98;17.45;;;10.60;97.70;;;;;;4914404;29;20028;-84
2022/03/16 19:08:14;;;;;;;25.00;17.08;;;10.50;98.10;;;;;;4913250;29;20035;-86
2022/03/16 19:13:50;;;;;;;24.77;18.77;;;10.40;97.90;;;;;;4933064;29;20032;-84
2022/03/16 19:16:17;;;;;;;25.63;17.70;;;10.40;98.00;;;;;;4929305;29;20032;-84
2022/03/16 19:18:58;;;;;;;25.65;18.88;;;10.40;98.00;;;;;;4912938;29;20044;-83
2022/03/16 19:21:26;;;;;;;30.77;20.48;;;10.30;98.10;;;;;;4928110;29;20036;-85
2022/03/16 19:23:55;;;;;;;30.77;19.52;;;10.30;98.00;;;;;;4928316;29;20028;-85
2022/03/16 19:26:21;;;;;;;28.55;19.27;;;10.30;98.20;;;;;;4929808;29;20032;-84
2022/03/16 19:28:48;;;;;;;33.35;22.48;;;10.20;98.20;;;;;;4927847;29;20032;-86
2022/03/16 19:31:14;;;;;;;32.97;21.13;;;10.20;98.40;;;;;;4928189;29;20318;-84
2022/03/16 19:33:40;;;;;;;31.20;22.92;;;10.20;98.40;;;;;;4910316;29;20190;-85
2022/03/16 19:36:07;;;;;;;30.95;21.52;;;10.20;98.50;;;;;;4911221;29;20052;-84
2022/03/16 19:38:34;;;;;;;30.60;20.75;;;10.10;98.40;;;;;;4912782;29;20028;-84
2022/03/16 19:41:01;;;;;;;27.67;20.58;;;10.10;98.50;;;;;;4928756;29;20071;-85
2022/03/16 19:43:27;;;;;;;30.65;21.27;;;10.10;98.50;;;;;;4929151;29;20378;-85
2022/03/16 19:45:54;;;;;;;28.77;20.77;;;10.00;98.60;;;;;;4910722;29;20028;-85
2022/03/16 19:52:16;;;;;;;27.42;21.13;;;10.00;98.70;;;;;;4909209;29;20207;-86
2022/03/16 19:55:16;;;;;;;29.30;21.20;;;9.90;98.70;;;;;;4908043;29;20033;-85
2022/03/16 19:57:44;;;;;;;31.05;22.63;;;9.80;98.80;;;;;;4907702;29;20025;-84
2022/03/16 20:00:13;;;;;;;32.60;24.20;;;9.80;98.70;;;;;;4891760;29;20247;-85
2022/03/16 20:03:00;;;;;;;30.63;23.38;;;9.90;98.60;;;;;;4923298;29;20028;-85
2022/03/16 20:05:29;;;;;;;31.08;22.63;;;9.90;98.50;;;;;;4927811;29;20058;-85
2022/03/16 20:07:56;;;;;;;31.35;23.55;;;9.90;98.50;;;;;;4928203;29;20119;-84
2022/03/16 20:10:25;;;;;;;33.33;23.55;;;9.90;98.40;;;;;;4927082;29;20012;-87
2022/03/16 20:12:58;;;;;;;28.05;21.48;;;9.80;98.40;;;;;;4926244;29;20055;-87
2022/03/16 20:15:49;;;;;;;33.28;23.67;;;9.80;98.40;;;;;;4925539;29;20119;-86
2022/03/16 20:18:29;;;;;;;33.80;23.65;;;9.80;98.40;;;;;;4911392;29;20028;-86
2022/03/16 20:21:35;;;;;;;32.08;22.55;;;9.80;98.50;;;;;;4929046;29;20337;-87
2022/03/16 20:24:11;;;;;;;31.17;22.02;;;9.70;98.60;;;;;;4928629;29;20060;-86
2022/03/16 20:26:36;;;;;;;32.90;24.05;;;9.80;98.70;;;;;;4937654;29;20028;-86
2022/03/16 20:29:04;;;;;;;31.75;23.02;;;9.70;98.70;;;;;;4919957;29;20043;-87
2022/03/16 20:31:34;;;;;;;32.60;24.38;;;9.70;98.70;;;;;;4932969;29;20040;-86
2022/03/16 20:34:00;;;;;;;31.42;23.50;;;9.70;98.80;;;;;;4928385;29;20028;-87
2022/03/16 20:36:29;;;;;;;33.33;23.55;;;9.60;98.80;;;;;;4889868;29;20117;-89
2022/03/16 20:42:35;;;;;;;33.10;23.77;;;9.50;99.10;;;;;;4893663;29;20108;-84
2022/03/16 20:45:08;;;;;;;33.67;24.25;;;9.50;99.20;;;;;;4887953;29;20299;-87
2022/03/16 20:47:35;;;;;;;31.80;24.05;;;9.50;99.20;;;;;;4876726;29;20075;-88
2022/03/16 20:50:21;;;;;;;32.42;24.88;;;9.40;99.20;;;;;;4877519;29;20033;-84
2022/03/16 20:53:00;;;;;;;29.80;23.13;;;9.40;99.30;;;;;;4891036;29;20108;-88
2022/03/16 20:55:28;;;;;;;34.78;24.20;;;9.40;99.30;;;;;;4892461;29;20149;-85
2022/03/16 21:14:02;;;;;;;34.05;24.95;;;9.30;99.50;;;;;;4812948;29;20034;-88
2022/03/16 21:26:07;;;;;;;39.05;27.65;;;9.20;99.60;;;;;;5094121;23;20051;-87
2022/03/16 21:29:07;;;;;;;38.08;28.00;;;9.20;99.80;;;;;;4932046;29;20031;-87
2022/03/16 21:31:36;;;;;;;38.80;28.02;;;9.20;99.70;;;;;;4930690;29;20043;-87
2022/03/16 21:34:02;;;;;;;50.03;34.45;;;9.20;99.70;;;;;;4932609;29;20024;-88
2022/03/16 21:36:28;;;;;;;40.92;29.65;;;9.20;99.80;;;;;;4932013;29;20028;-87
2022/03/16 21:39:00;;;;;;;39.15;28.50;;;9.20;99.80;;;;;;4915291;29;20036;-86
2022/03/16 21:54:49;;;;;;;37.28;27.77;;;9.20;99.60;;;;;;4928994;29;20035;-86
2022/03/16 21:57:17;;;;;;;36.47;26.58;;;9.20;99.60;;;;;;4913926;29;20099;-85
2022/03/16 22:00:37;;;;;;;37.33;27.02;;;9.20;99.70;;;;;;4914347;29;20099;-86
2022/03/16 22:03:08;;;;;;;36.50;27.58;;;9.20;99.70;;;;;;4869847;29;20041;-85
2022/03/16 22:05:38;;;;;;;38.20;27.17;;;9.20;99.80;;;;;;4880154;29;20033;-85
2022/03/16 22:08:05;;;;;;;37.92;27.88;;;9.20;99.60;;;;;;4877361;29;20265;-85
2022/03/16 22:10:31;;;;;;;40.90;29.38;;;9.10;99.80;;;;;;4881639;29;20095;-83
2022/03/16 22:13:04;;;;;;;39.10;29.48;;;9.10;99.70;;;;;;4895645;29;20029;-85
2022/03/16 22:15:55;;;;;;;36.80;28.40;;;9.10;99.80;;;;;;4892494;29;20127;-84
2022/03/16 22:18:21;;;;;;;37.55;28.02;;;9.10;99.80;;;;;;4896785;29;20132;-84
2022/03/16 22:23:31;;;;;;;36.72;27.35;;;9.00;99.80;;;;;;4912299;29;20029;-85
2022/03/16 22:26:00;;;;;;;40.22;29.15;;;9.00;99.70;;;;;;4896199;29;20053;-84
2022/03/16 22:28:26;;;;;;;37.95;27.40;;;9.00;99.70;;;;;;4896556;29;20091;-85
2022/03/16 22:30:53;;;;;;;39.55;28.98;;;9.00;99.40;;;;;;4910913;29;20040;-85
2022/03/16 22:33:19;;;;;;;39.30;29.45;;;9.00;99.50;;;;;;4895668;29;20036;-87
2022/03/16 22:36:06;;;;;;;36.45;27.73;;;9.00;99.50;;;;;;4893462;29;20028;-86
2022/03/16 22:38:49;;;;;;;37.88;28.45;;;9.00;99.30;;;;;;4894179;29;20037;-84
2022/03/16 22:41:24;;;;;;;35.15;26.35;;;9.10;99.10;;;;;;4893930;29;20036;-84
2022/03/16 22:43:53;;;;;;;35.05;26.13;;;9.10;99.00;;;;;;4894829;29;20088;-84
2022/03/16 22:46:19;;;;;;;34.33;25.98;;;9.10;98.90;;;;;;4901532;29;20164;-84
2022/03/16 22:48:45;;;;;;;38.17;28.23;;;9.10;98.90;;;;;;4912456;29;20376;-84
2022/03/16 22:51:11;;;;;;;35.92;25.90;;;9.10;99.10;;;;;;4896938;29;20028;-84
2022/03/16 22:53:37;;;;;;;36.15;26.65;;;9.10;98.90;;;;;;4912827;29;20052;-86
2022/03/16 22:56:03;;;;;;;36.17;26.00;;;9.10;98.80;;;;;;4912256;29;20112;-84
2022/03/16 22:58:30;;;;;;;35.15;26.70;;;9.10;98.70;;;;;;4911568;29;20048;-87
2022/03/16 23:00:56;;;;;;;36.15;26.40;;;9.10;98.80;;;;;;4897135;29;20088;-87
2022/03/16 23:03:25;;;;;;;31.45;24.42;;;9.10;98.70;;;;;;4873873;29;20048;-84
2022/03/16 23:05:51;;;;;;;33.45;25.77;;;9.10;98.70;;;;;;4857822;29;20052;-85
2022/03/16 23:08:18;;;;;;;34.55;25.70;;;9.10;98.70;;;;;;4873720;29;20035;-84
2022/03/16 23:10:45;;;;;;;33.35;25.58;;;9.10;98.70;;;;;;4888818;29;20036;-85
2022/03/16 23:13:13;;;;;;;35.63;27.00;;;9.00;98.70;;;;;;4888723;29;20117;-86
2022/03/16 23:15:39;;;;;;;35.67;27.80;;;9.00;98.80;;;;;;4888409;29;20044;-83
2022/03/16 23:18:05;;;;;;;33.80;26.05;;;9.00;98.90;;;;;;4873463;29;20116;-83
2022/03/16 23:20:31;;;;;;;35.28;25.95;;;9.00;98.90;;;;;;4873123;29;20033;-86
2022/03/16 23:22:59;;;;;;;35.80;26.65;;;9.00;98.90;;;;;;4872134;29;20044;-83
2022/03/16 23:25:29;;;;;;;36.90;27.17;;;9.00;98.80;;;;;;4872580;29;20117;-85
2022/03/16 23:38:26;;;;;;;38.15;27.10;;;8.90;98.90;;;;;;4930125;29;20028;-86
2022/03/16 23:49:35;;;;;;;39.35;28.08;;;9.00;98.60;;;;;;4865634;29;20077;-83
2022/03/16 23:55:50;;;;;;;40.30;28.65;;;9.00;98.70;;;;;;4907435;29;20039;-86
